sensor_id;sensor_type;location;lat;lon;timestamp;temperature;humidity
8541;DHT22;4308;51.294;6.590;2022-09-06T01:32:10;18.60;99.90
8541;DHT22;4308;51.294;6.590;2022-09-06T04:14:40;18.60;99.90
8541;DHT22;4308;51.294;6.590;2022-09-06T04:22:08;18.40;99.90
8541;DHT22;4308;51.294;6.590;2022-09-06T04:24:37;18.20;99.90
8541;DHT22;4308;51.294;6.590;2022-09-06T04:29:34;18.50;99.90
8541;DHT22;4308;51.294;6.590;2022-09-06T04:32:04;18.50;99.90
8541;DHT22;4308;51.294;6.590;2022-09-06T04:36:59;18.50;99.90
8541;DHT22;4308;51.294;6.590;2022-09-06T04:39:26;18.40;99.90
8541;DHT22;4308;51.294;6.590;2022-09-06T04:41:54;18.50;99.90
8541;DHT22;4308;51.294;6.590;2022-09-06T05:16:20;17.50;99.90
8541;DHT22;4308;51.294;6.590;2022-09-06T05:18:47;17.60;99.90
8541;DHT22;4308;51.294;6.590;2022-09-06T05:21:17;17.60;99.90
8541;DHT22;4308;51.294;6.590;2022-09-06T05:23:44;17.60;99.90
8541;DHT22;4308;51.294;6.590;2022-09-06T05:26:12;17.60;99.90
8541;DHT22;4308;51.294;6.590;2022-09-06T05:28:39;17.70;99.90
8541;DHT22;4308;51.294;6.590;2022-09-06T05:31:23;20.30;99.90
8541;DHT22;4308;51.294;6.590;2022-09-06T05:36:21;21.90;99.90
8541;DHT22;4308;51.294;6.590;2022-09-06T05:38:52;24.30;99.90
8541;DHT22;4308;51.294;6.590;2022-09-06T05:41:20;24.70;99.90
8541;DHT22;4308;51.294;6.590;2022-09-06T05:53:42;29.10;99.90
8541;DHT22;4308;51.294;6.590;2022-09-06T05:56:11;29.30;99.90
8541;DHT22;4308;51.294;6.590;2022-09-06T05:58:38;29.80;99.90
8541;DHT22;4308;51.294;6.590;2022-09-06T06:01:13;30.70;99.90
8541;DHT22;4308;51.294;6.590;2022-09-06T06:03:41;31.10;99.90
8541;DHT22;4308;51.294;6.590;2022-09-06T06:06:08;28.70;99.90
8541;DHT22;4308;51.294;6.590;2022-09-06T12:19:48;30.20;99.90
8541;DHT22;4308;51.294;6.590;2022-09-06T12:24:56;30.70;99.90
8541;DHT22;4308;51.294;6.590;2022-09-06T12:29:56;30.80;99.90
8541;DHT22;4308;51.294;6.590;2022-09-06T12:32:48;30.90;99.90
8541;DHT22;4308;51.294;6.590;2022-09-06T12:35:21;31.20;99.90
8541;DHT22;4308;51.294;6.590;2022-09-06T12:38:13;31.30;99.90
8541;DHT22;4308;51.294;6.590;2022-09-06T12:40:45;31.00;99.90
8541;DHT22;4308;51.294;6.590;2022-09-06T12:43:15;31.10;99.90
8541;DHT22;4308;51.294;6.590;2022-09-06T12:45:48;31.20;99.90
8541;DHT22;4308;51.294;6.590;2022-09-06T12:48:27;31.30;99.90
8541;DHT22;4308;51.294;6.590;2022-09-06T12:51:07;31.40;99.90
8541;DHT22;4308;51.294;6.590;2022-09-06T12:53:34;31.50;99.90
8541;DHT22;4308;51.294;6.590;2022-09-06T12:56:07;31.50;99.90
8541;DHT22;4308;51.294;6.590;2022-09-06T12:58:35;31.40;99.90
8541;DHT22;4308;51.294;6.590;2022-09-06T13:01:16;31.40;99.90
8541;DHT22;4308;51.294;6.590;2022-09-06T13:04:08;31.20;99.90
8541;DHT22;4308;51.294;6.590;2022-09-06T13:06:41;31.20;99.90
8541;DHT22;4308;51.294;6.590;2022-09-06T13:09:13;31.10;99.90
8541;DHT22;4308;51.294;6.590;2022-09-06T13:11:46;31.00;99.90
8541;DHT22;4308;51.294;6.590;2022-09-06T13:14:24;31.00;99.90
8541;DHT22;4308;51.294;6.590;2022-09-06T13:16:53;31.10;99.90
8541;DHT22;4308;51.294;6.590;2022-09-06T13:22:02;31.10;99.90
8541;DHT22;4308;51.294;6.590;2022-09-06T13:24:38;31.10;99.90
8541;DHT22;4308;51.294;6.590;2022-09-06T13:29:56;31.20;99.90
8541;DHT22;4308;51.294;6.590;2022-09-06T13:32:25;31.20;99.90
8541;DHT22;4308;51.294;6.590;2022-09-06T13:34:53;31.20;99.90
8541;DHT22;4308;51.294;6.590;2022-09-06T13:37:20;31.30;99.90
8541;DHT22;4308;51.294;6.590;2022-09-06T13:39:47;31.30;99.90
8541;DHT22;4308;51.294;6.590;2022-09-06T13:42:29;31.20;98.90
8541;DHT22;4308;51.294;6.590;2022-09-06T13:45:14;31.30;98.90
8541;DHT22;4308;51.294;6.590;2022-09-06T13:47:42;31.30;98.20
8541;DHT22;4308;51.294;6.590;2022-09-06T13:50:09;31.20;98.00
8541;DHT22;4308;51.294;6.590;2022-09-06T13:52:37;31.30;97.10
8541;DHT22;4308;51.294;6.590;2022-09-06T13:55:05;31.30;97.10
8541;DHT22;4308;51.294;6.590;2022-09-06T13:57:32;31.40;97.30
8541;DHT22;4308;51.294;6.590;2022-09-06T13:59:59;31.40;96.80
8541;DHT22;4308;51.294;6.590;2022-09-06T14:02:27;31.40;97.20
8541;DHT22;4308;51.294;6.590;2022-09-06T14:04:54;31.40;97.20
8541;DHT22;4308;51.294;6.590;2022-09-06T14:07:21;31.30;97.20
8541;DHT22;4308;51.294;6.590;2022-09-06T14:09:49;31.30;97.50
8541;DHT22;4308;51.294;6.590;2022-09-06T14:12:19;31.00;98.40
8541;DHT22;4308;51.294;6.590;2022-09-06T14:14:46;31.20;98.70
8541;DHT22;4308;51.294;6.590;2022-09-06T14:17:14;31.20;98.80
8541;DHT22;4308;51.294;6.590;2022-09-06T14:19:41;31.30;98.80
8541;DHT22;4308;51.294;6.590;2022-09-06T14:22:08;31.30;99.60
8541;DHT22;4308;51.294;6.590;2022-09-06T14:24:36;31.30;98.50
8541;DHT22;4308;51.294;6.590;2022-09-06T14:27:04;31.10;98.10
8541;DHT22;4308;51.294;6.590;2022-09-06T14:29:32;31.10;98.10
8541;DHT22;4308;51.294;6.590;2022-09-06T14:31:59;31.10;98.60
8541;DHT22;4308;51.294;6.590;2022-09-06T14:34:27;31.10;98.20
8541;DHT22;4308;51.294;6.590;2022-09-06T14:36:54;31.10;98.80
8541;DHT22;4308;51.294;6.590;2022-09-06T14:39:21;31.20;98.40
8541;DHT22;4308;51.294;6.590;2022-09-06T14:41:49;31.30;98.60
8541;DHT22;4308;51.294;6.590;2022-09-06T14:44:16;31.40;98.40
8541;DHT22;4308;51.294;6.590;2022-09-06T14:46:43;31.10;98.70
8541;DHT22;4308;51.294;6.590;2022-09-06T14:49:10;31.20;98.10
8541;DHT22;4308;51.294;6.590;2022-09-06T14:51:38;31.40;98.50
8541;DHT22;4308;51.294;6.590;2022-09-06T14:54:11;31.40;97.90
8541;DHT22;4308;51.294;6.590;2022-09-06T14:56:39;31.40;98.90
8541;DHT22;4308;51.294;6.590;2022-09-06T14:59:07;31.20;98.90
8541;DHT22;4308;51.294;6.590;2022-09-06T15:01:35;31.20;99.10
8541;DHT22;4308;51.294;6.590;2022-09-06T15:04:07;31.20;98.40
8541;DHT22;4308;51.294;6.590;2022-09-06T15:06:36;31.20;98.40
8541;DHT22;4308;51.294;6.590;2022-09-06T15:09:04;31.10;98.60
8541;DHT22;4308;51.294;6.590;2022-09-06T15:11:45;31.20;98.00
8541;DHT22;4308;51.294;6.590;2022-09-06T15:14:22;31.30;97.50
8541;DHT22;4308;51.294;6.590;2022-09-06T15:16:50;31.40;97.90
8541;DHT22;4308;51.294;6.590;2022-09-06T15:19:27;31.40;98.00
8541;DHT22;4308;51.294;6.590;2022-09-06T15:21:55;31.20;97.90
8541;DHT22;4308;51.294;6.590;2022-09-06T15:24:22;31.10;98.30
8541;DHT22;4308;51.294;6.590;2022-09-06T15:26:50;31.20;98.20
8541;DHT22;4308;51.294;6.590;2022-09-06T15:29:17;30.90;98.00
8541;DHT22;4308;51.294;6.590;2022-09-06T15:31:46;30.60;97.80
8541;DHT22;4308;51.294;6.590;2022-09-06T15:34:13;30.70;97.60
8541;DHT22;4308;51.294;6.590;2022-09-06T15:36:41;30.60;97.50
8541;DHT22;4308;51.294;6.590;2022-09-06T15:39:08;30.60;97.80
8541;DHT22;4308;51.294;6.590;2022-09-06T15:41:36;30.70;97.20
8541;DHT22;4308;51.294;6.590;2022-09-06T15:46:54;30.80;97.10
8541;DHT22;4308;51.294;6.590;2022-09-06T15:49:27;30.60;96.90
8541;DHT22;4308;51.294;6.590;2022-09-06T15:51:57;30.50;96.30
8541;DHT22;4308;51.294;6.590;2022-09-06T15:54:26;30.70;96.10
8541;DHT22;4308;51.294;6.590;2022-09-06T15:56:53;30.60;96.10
8541;DHT22;4308;51.294;6.590;2022-09-06T15:59:21;30.50;96.30
8541;DHT22;4308;51.294;6.590;2022-09-06T16:01:48;30.60;96.50
8541;DHT22;4308;51.294;6.590;2022-09-06T16:04:15;30.70;96.10
8541;DHT22;4308;51.294;6.590;2022-09-06T16:06:42;30.50;96.20
8541;DHT22;4308;51.294;6.590;2022-09-06T16:09:12;30.20;96.10
8541;DHT22;4308;51.294;6.590;2022-09-06T16:11:40;30.40;96.40
8541;DHT22;4308;51.294;6.590;2022-09-06T16:14:10;30.20;96.00
8541;DHT22;4308;51.294;6.590;2022-09-06T16:16:38;30.10;96.10
8541;DHT22;4308;51.294;6.590;2022-09-06T16:19:05;30.00;95.70
8541;DHT22;4308;51.294;6.590;2022-09-06T16:21:35;30.10;95.90
8541;DHT22;4308;51.294;6.590;2022-09-06T16:24:05;30.20;96.20
8541;DHT22;4308;51.294;6.590;2022-09-06T16:26:41;30.10;95.70
8541;DHT22;4308;51.294;6.590;2022-09-06T16:29:11;29.90;95.50
8541;DHT22;4308;51.294;6.590;2022-09-06T16:31:38;29.80;96.20
8541;DHT22;4308;51.294;6.590;2022-09-06T16:34:11;29.80;98.80
8541;DHT22;4308;51.294;6.590;2022-09-06T16:36:39;29.80;99.20
8541;DHT22;4308;51.294;6.590;2022-09-06T16:39:07;29.80;99.00
8541;DHT22;4308;51.294;6.590;2022-09-06T16:41:39;29.80;99.00
8541;DHT22;4308;51.294;6.590;2022-09-06T16:44:08;29.90;99.10
8541;DHT22;4308;51.294;6.590;2022-09-06T16:46:35;29.90;99.10
8541;DHT22;4308;51.294;6.590;2022-09-06T16:49:03;29.90;99.20
8541;DHT22;4308;51.294;6.590;2022-09-06T16:51:30;29.80;98.10
8541;DHT22;4308;51.294;6.590;2022-09-06T16:53:59;29.70;98.30
8541;DHT22;4308;51.294;6.590;2022-09-06T16:56:29;29.60;98.20
8541;DHT22;4308;51.294;6.590;2022-09-06T16:58:59;29.60;98.30
8541;DHT22;4308;51.294;6.590;2022-09-06T17:01:28;29.50;98.20
8541;DHT22;4308;51.294;6.590;2022-09-06T17:03:56;29.30;98.30
8541;DHT22;4308;51.294;6.590;2022-09-06T17:06:23;29.30;98.20
8541;DHT22;4308;51.294;6.590;2022-09-06T17:08:51;29.20;98.40
8541;DHT22;4308;51.294;6.590;2022-09-06T17:11:20;29.20;98.30
8541;DHT22;4308;51.294;6.590;2022-09-06T17:13:49;29.10;98.60
8541;DHT22;4308;51.294;6.590;2022-09-06T17:16:18;29.10;98.50
8541;DHT22;4308;51.294;6.590;2022-09-06T17:18:49;29.00;98.60
8541;DHT22;4308;51.294;6.590;2022-09-06T17:21:17;28.90;98.80
8541;DHT22;4308;51.294;6.590;2022-09-06T17:23:44;28.90;98.60
8541;DHT22;4308;51.294;6.590;2022-09-06T17:26:12;28.80;98.50
8541;DHT22;4308;51.294;6.590;2022-09-06T17:28:39;28.80;99.20
8541;DHT22;4308;51.294;6.590;2022-09-06T17:31:07;28.80;99.40
8541;DHT22;4308;51.294;6.590;2022-09-06T17:33:35;28.70;98.90
8541;DHT22;4308;51.294;6.590;2022-09-06T17:38:33;28.60;98.80
8541;DHT22;4308;51.294;6.590;2022-09-06T17:48:28;28.10;99.90
8541;DHT22;4308;51.294;6.590;2022-09-06T17:51:04;28.30;99.90
8541;DHT22;4308;51.294;6.590;2022-09-06T17:53:32;28.20;99.90
8541;DHT22;4308;51.294;6.590;2022-09-06T18:51:02;26.20;75.60
8541;DHT22;4308;51.294;6.590;2022-09-06T18:53:30;26.10;76.20
8541;DHT22;4308;51.294;6.590;2022-09-06T18:55:58;26.10;75.60
8541;DHT22;4308;51.294;6.590;2022-09-06T18:58:25;26.00;75.40
8541;DHT22;4308;51.294;6.590;2022-09-06T19:00:59;25.90;76.20
8541;DHT22;4308;51.294;6.590;2022-09-06T19:03:27;25.80;77.40
8541;DHT22;4308;51.294;6.590;2022-09-06T19:05:54;25.70;77.90
8541;DHT22;4308;51.294;6.590;2022-09-06T19:08:22;25.70;77.30
8541;DHT22;4308;51.294;6.590;2022-09-06T19:11:01;25.60;78.30
8541;DHT22;4308;51.294;6.590;2022-09-06T19:13:29;25.60;77.90
8541;DHT22;4308;51.294;6.590;2022-09-06T19:15:57;25.60;78.00
8541;DHT22;4308;51.294;6.590;2022-09-06T19:18:25;25.60;78.10
8541;DHT22;4308;51.294;6.590;2022-09-06T19:21:04;25.60;78.60
8541;DHT22;4308;51.294;6.590;2022-09-06T19:23:33;25.50;78.40
8541;DHT22;4308;51.294;6.590;2022-09-06T19:26:04;25.50;78.70
8541;DHT22;4308;51.294;6.590;2022-09-06T19:28:32;25.50;78.40
8541;DHT22;4308;51.294;6.590;2022-09-06T19:31:07;25.40;78.50
8541;DHT22;4308;51.294;6.590;2022-09-06T19:33:34;25.40;78.90
8541;DHT22;4308;51.294;6.590;2022-09-06T19:36:02;25.30;79.20
8541;DHT22;4308;51.294;6.590;2022-09-06T19:38:39;25.30;79.60
8541;DHT22;4308;51.294;6.590;2022-09-06T19:41:28;25.30;79.80
8541;DHT22;4308;51.294;6.590;2022-09-06T19:43:56;25.20;80.10
8541;DHT22;4308;51.294;6.590;2022-09-06T19:46:24;25.10;80.60
8541;DHT22;4308;51.294;6.590;2022-09-06T19:48:53;25.00;80.90
8541;DHT22;4308;51.294;6.590;2022-09-06T19:51:21;24.90;81.00
8541;DHT22;4308;51.294;6.590;2022-09-06T19:53:50;24.90;81.30
8541;DHT22;4308;51.294;6.590;2022-09-06T19:56:20;24.80;81.40
8541;DHT22;4308;51.294;6.590;2022-09-06T19:58:52;24.80;81.30
8541;DHT22;4308;51.294;6.590;2022-09-06T20:01:21;24.80;81.50
8541;DHT22;4308;51.294;6.590;2022-09-06T20:03:52;24.70;81.80
8541;DHT22;4308;51.294;6.590;2022-09-06T20:06:20;24.70;81.90
8541;DHT22;4308;51.294;6.590;2022-09-06T20:08:53;24.60;82.00
8541;DHT22;4308;51.294;6.590;2022-09-06T20:11:23;24.60;82.50
8541;DHT22;4308;51.294;6.590;2022-09-06T20:13:51;24.50;82.80
8541;DHT22;4308;51.294;6.590;2022-09-06T20:16:19;24.40;82.80
8541;DHT22;4308;51.294;6.590;2022-09-06T23:17:12;23.20;94.50
8541;DHT22;4308;51.294;6.590;2022-09-06T23:19:39;23.20;94.80
8541;DHT22;4308;51.294;6.590;2022-09-06T23:22:07;22.70;96.80
8541;DHT22;4308;51.294;6.590;2022-09-06T23:24:34;22.20;99.20
8541;DHT22;4308;51.294;6.590;2022-09-06T23:27:02;21.60;99.90
8541;DHT22;4308;51.294;6.590;2022-09-06T23:29:30;21.20;99.90
8541;DHT22;4308;51.294;6.590;2022-09-06T23:31:58;21.00;99.90
8541;DHT22;4308;51.294;6.590;2022-09-06T23:34:25;20.30;99.90
8541;DHT22;4308;51.294;6.590;2022-09-06T23:36:52;20.30;99.90
8541;DHT22;4308;51.294;6.590;2022-09-06T23:39:19;20.00;99.90
8541;DHT22;4308;51.294;6.590;2022-09-06T23:41:47;19.90;99.90
8541;DHT22;4308;51.294;6.590;2022-09-06T23:44:14;19.70;99.90
8541;DHT22;4308;51.294;6.590;2022-09-06T23:46:41;19.60;99.90
8541;DHT22;4308;51.294;6.590;2022-09-06T23:49:09;19.40;99.90
8541;DHT22;4308;51.294;6.590;2022-09-06T23:51:36;19.40;99.90
8541;DHT22;4308;51.294;6.590;2022-09-06T23:54:03;19.30;99.90
8541;DHT22;4308;51.294;6.590;2022-09-06T23:56:31;19.30;99.90
8541;DHT22;4308;51.294;6.590;2022-09-06T23:58:58;19.20;99.90
